Time;durP1;ratioP1;P1;durP2;ratioP2;P2;SDS_P1;SDS_P2;PMS_P1;PMS_P2;Temp;Humidity;BMP_temperature;BMP_pressure;BME280_temperature;BME280_humidity;BME280_pressure;Samples;Min_cycle;Max_cycle;Signal;HPM_P1;HPM_P2
2022/06/15 00:01:28;;;;;;;11.45;7.30;;;13.10;99.90;;;;;;5075986;28;20040;-74
2022/06/15 00:04:00;;;;;;;15.85;7.18;;;13.10;99.90;;;;;;5075776;28;20065;-74
2022/06/15 00:06:30;;;;;;;12.93;6.43;;;13.10;99.90;;;;;;5075756;28;20043;-74
2022/06/15 00:08:59;;;;;;;9.25;5.53;;;13.10;99.90;;;;;;5059495;28;20041;-74
2022/06/15 00:11:29;;;;;;;9.23;5.88;;;13.00;99.90;;;;;;5077606;28;20049;-74
2022/06/15 00:13:59;;;;;;;8.18;5.82;;;13.00;99.90;;;;;;5075904;28;20488;-74
2022/06/15 00:16:27;;;;;;;7.25;5.47;;;13.00;99.90;;;;;;5087482;28;20055;-74
2022/06/15 00:18:56;;;;;;;8.35;5.13;;;12.90;99.90;;;;;;5071877;28;20056;-74
2022/06/15 00:21:23;;;;;;;8.68;5.60;;;12.80;99.90;;;;;;5096198;28;20048;-74
2022/06/15 00:23:51;;;;;;;9.80;5.70;;;12.80;99.90;;;;;;5097921;28;20032;-74
2022/06/15 00:26:18;;;;;;;9.57;5.50;;;12.80;99.90;;;;;;5084490;28;20132;-74
2022/06/15 00:28:46;;;;;;;9.98;5.35;;;12.70;99.90;;;;;;5060447;28;20571;-74
2022/06/15 00:31:13;;;;;;;12.48;5.70;;;12.70;99.90;;;;;;5075119;28;20082;-74
2022/06/15 00:33:40;;;;;;;7.80;5.55;;;12.70;99.90;;;;;;5079786;28;20058;-74
2022/06/15 00:36:12;;;;;;;9.85;5.55;;;12.70;99.90;;;;;;5075538;28;20055;-74
2022/06/15 00:38:41;;;;;;;7.53;5.32;;;12.70;99.90;;;;;;5075556;28;20041;-74
2022/06/15 00:41:11;;;;;;;10.90;4.75;;;12.60;99.90;;;;;;5075505;28;20070;-74
2022/06/15 00:43:42;;;;;;;11.48;5.47;;;12.60;99.90;;;;;;5074748;28;20049;-74
2022/06/15 00:46:20;;;;;;;7.50;5.22;;;12.60;99.90;;;;;;5075139;28;20056;-74
2022/06/15 00:48:52;;;;;;;7.57;4.60;;;12.50;99.90;;;;;;5074518;28;20051;-74
2022/06/15 00:51:22;;;;;;;9.65;4.75;;;12.50;99.90;;;;;;5071560;28;20044;-74
2022/06/15 00:53:49;;;;;;;9.75;5.30;;;12.50;99.90;;;;;;5045154;28;20063;-74
2022/06/15 00:56:17;;;;;;;9.70;4.60;;;12.50;99.90;;;;;;5054965;28;20045;-74
2022/06/15 00:58:49;;;;;;;8.20;5.55;;;12.50;99.90;;;;;;5055202;28;20045;-73
2022/06/15 01:01:17;;;;;;;8.57;5.30;;;12.40;99.90;;;;;;5062226;28;20044;-74
2022/06/15 01:03:49;;;;;;;8.40;4.85;;;12.40;99.90;;;;;;5074627;28;20415;-74
2022/06/15 01:06:22;;;;;;;8.77;5.28;;;12.30;99.90;;;;;;5056949;28;20044;-74
2022/06/15 01:08:58;;;;;;;7.25;4.50;;;12.20;99.90;;;;;;5074435;28;20040;-73
2022/06/15 01:11:49;;;;;;;11.52;5.82;;;12.20;99.90;;;;;;5056768;28;20087;-74
2022/06/15 01:14:35;;;;;;;7.28;4.55;;;12.20;99.90;;;;;;5052782;28;20135;-72
2022/06/15 01:17:13;;;;;;;9.68;5.25;;;12.20;99.90;;;;;;5074375;28;20052;-74
2022/06/15 01:20:12;;;;;;;9.43;4.70;;;12.20;99.90;;;;;;5056685;28;20044;-73
2022/06/15 01:23:11;;;;;;;7.82;5.07;;;12.30;99.90;;;;;;5031774;28;20053;-74
2022/06/15 01:25:43;;;;;;;9.07;4.70;;;12.20;99.90;;;;;;5070552;28;20471;-74
2022/06/15 01:28:41;;;;;;;8.20;4.88;;;12.10;99.90;;;;;;5063396;28;20102;-74
2022/06/15 01:31:22;;;;;;;7.57;4.72;;;12.20;99.90;;;;;;5044491;28;20048;-73
2022/06/15 01:34:01;;;;;;;8.95;5.10;;;12.10;99.90;;;;;;5074535;28;20441;-73
2022/06/15 01:36:39;;;;;;;12.27;5.70;;;12.10;99.90;;;;;;5073601;28;20044;-73
2022/06/15 01:39:14;;;;;;;10.55;6.43;;;12.00;99.90;;;;;;5045780;28;20049;-73
2022/06/15 01:41:49;;;;;;;12.15;7.90;;;11.90;99.90;;;;;;5049882;28;20515;-73
2022/06/15 01:44:24;;;;;;;10.10;7.25;;;11.90;99.90;;;;;;5036067;28;20049;-73
2022/06/15 01:46:54;;;;;;;12.27;6.70;;;11.80;99.90;;;;;;5032927;28;20505;-73
2022/06/15 01:49:26;;;;;;;16.92;7.45;;;11.80;99.90;;;;;;5032930;28;20313;-73
2022/06/15 01:51:56;;;;;;;14.10;6.63;;;11.80;99.90;;;;;;5042250;28;20132;-73
2022/06/15 01:54:28;;;;;;;10.90;6.63;;;11.80;99.90;;;;;;5033452;28;20128;-73
2022/06/15 01:56:58;;;;;;;11.30;7.20;;;11.70;99.90;;;;;;5047524;28;20041;-73
2022/06/15 01:59:31;;;;;;;13.82;7.47;;;11.70;99.90;;;;;;5052371;28;20085;-73
2022/06/15 02:02:06;;;;;;;13.10;7.07;;;11.80;99.90;;;;;;5052785;28;20045;-73
2022/06/15 02:04:46;;;;;;;15.82;6.00;;;11.70;99.90;;;;;;5053129;28;20049;-73
2022/06/15 02:07:28;;;;;;;12.60;6.57;;;11.70;99.90;;;;;;5052098;28;20103;-73
2022/06/15 02:10:00;;;;;;;8.93;5.72;;;11.70;99.90;;;;;;5049506;28;20132;-73
2022/06/15 02:12:35;;;;;;;9.25;5.75;;;11.60;99.90;;;;;;5032459;28;20126;-74
2022/06/15 02:15:05;;;;;;;10.23;5.63;;;11.60;99.90;;;;;;5032543;28;20045;-73
2022/06/15 02:17:37;;;;;;;7.38;5.32;;;11.60;99.90;;;;;;5033747;28;20657;-73
2022/06/15 02:20:10;;;;;;;8.82;6.40;;;11.50;99.90;;;;;;5032022;28;20515;-73
2022/06/15 02:22:40;;;;;;;9.95;6.22;;;11.50;99.90;;;;;;5032752;28;20041;-73
2022/06/15 02:25:13;;;;;;;10.63;6.07;;;11.50;99.90;;;;;;5034122;28;20120;-73
2022/06/15 02:27:42;;;;;;;10.32;5.60;;;11.50;99.90;;;;;;5032737;28;20048;-72
2022/06/15 02:30:15;;;;;;;10.43;6.07;;;11.40;99.90;;;;;;5032198;28;20053;-73
2022/06/15 02:32:48;;;;;;;10.98;6.00;;;11.40;99.90;;;;;;5032507;28;20576;-73
2022/06/15 02:35:17;;;;;;;9.25;5.95;;;11.40;99.90;;;;;;5043171;28;20048;-72
2022/06/15 02:37:46;;;;;;;11.50;5.80;;;11.30;99.90;;;;;;5052082;28;20500;-73
2022/06/15 02:40:17;;;;;;;13.20;6.10;;;11.30;99.90;;;;;;5052745;28;20480;-73
2022/06/15 02:42:45;;;;;;;11.88;5.90;;;11.30;99.90;;;;;;5051768;28;20049;-73
2022/06/15 02:45:18;;;;;;;10.55;5.72;;;11.30;99.90;;;;;;5053786;22;20045;31
2022/06/15 02:47:50;;;;;;;11.63;6.10;;;11.20;99.90;;;;;;5052731;28;20060;-72
2022/06/15 02:50:21;;;;;;;10.52;6.20;;;11.20;99.90;;;;;;5064506;28;20041;-71
2022/06/15 02:52:58;;;;;;;9.45;6.00;;;11.20;99.90;;;;;;5052242;28;20403;-72
2022/06/15 02:55:27;;;;;;;9.90;5.50;;;11.20;99.90;;;;;;5054995;28;20060;-73
2022/06/15 02:58:04;;;;;;;9.20;5.85;;;11.20;99.90;;;;;;5055151;28;20048;-72
2022/06/15 03:00:39;;;;;;;8.05;5.55;;;11.20;99.90;;;;;;5065787;28;20443;-71
2022/06/15 03:03:09;;;;;;;12.07;6.07;;;11.10;99.90;;;;;;5054854;28;20098;-71
2022/06/15 03:05:37;;;;;;;10.90;6.28;;;11.10;99.90;;;;;;5056134;28;20045;-72
2022/06/15 03:08:04;;;;;;;12.57;5.90;;;11.10;99.90;;;;;;5073946;28;20075;-72
2022/06/15 03:10:32;;;;;;;9.50;5.78;;;11.10;99.90;;;;;;5055117;28;20049;-71
2022/06/15 03:13:00;;;;;;;11.00;6.18;;;11.10;99.90;;;;;;5054794;28;20045;-71
2022/06/15 03:15:29;;;;;;;11.95;6.40;;;11.10;99.90;;;;;;5054601;28;20051;-72
2022/06/15 03:17:57;;;;;;;8.35;5.15;;;11.20;99.90;;;;;;5055070;28;20040;-72
2022/06/15 03:20:26;;;;;;;11.18;6.35;;;11.10;99.90;;;;;;5054722;28;20074;-72
2022/06/15 03:22:55;;;;;;;9.32;5.78;;;11.10;99.90;;;;;;5054972;28;20044;-71
2022/06/15 03:25:25;;;;;;;10.70;6.20;;;11.10;99.90;;;;;;5054561;28;20083;-72
2022/06/15 03:27:57;;;;;;;12.80;6.70;;;11.10;99.90;;;;;;5052481;28;20045;-72
2022/06/15 03:30:28;;;;;;;13.63;7.35;;;11.10;99.90;;;;;;5036360;28;20389;-72
2022/06/15 03:33:02;;;;;;;17.77;7.45;;;11.10;99.90;;;;;;5038595;28;20063;-72
2022/06/15 03:35:35;;;;;;;15.63;8.20;;;11.10;99.90;;;;;;5045230;28;20131;-72
2022/06/15 03:38:10;;;;;;;11.25;7.38;;;11.10;99.90;;;;;;5059266;28;20068;-72
2022/06/15 03:40:44;;;;;;;10.82;6.15;;;11.10;99.90;;;;;;5083529;28;20442;-72
2022/06/15 03:43:12;;;;;;;15.02;7.35;;;11.20;99.90;;;;;;5065965;28;20047;-72
2022/06/15 03:45:42;;;;;;;12.20;6.47;;;11.30;99.90;;;;;;5059433;28;20056;-72
2022/06/15 03:48:10;;;;;;;12.35;6.80;;;11.40;99.90;;;;;;5058783;28;20060;-71
2022/06/15 03:50:39;;;;;;;12.23;6.82;;;11.50;99.90;;;;;;5058276;28;20044;-72
2022/06/15 03:53:10;;;;;;;12.20;6.97;;;11.80;99.90;;;;;;5057798;28;20521;-71
2022/06/15 03:55:41;;;;;;;13.63;6.15;;;12.20;99.90;;;;;;5057864;28;20562;-71
2022/06/15 03:58:15;;;;;;;9.95;5.57;;;13.10;99.90;;;;;;5049973;28;20082;-71
2022/06/15 04:00:43;;;;;;;10.38;5.25;;;14.40;99.90;;;;;;5058693;28;20503;-73
2022/06/15 04:03:15;;;;;;;11.82;5.18;;;15.30;99.90;;;;;;5058146;28;20382;-70
2022/06/15 04:05:55;;;;;;;9.75;4.63;;;16.40;99.90;;;;;;5058026;28;20052;-72
2022/06/15 04:08:35;;;;;;;11.50;4.88;;;17.10;99.90;;;;;;5057957;28;20048;-72
2022/06/15 04:11:08;;;;;;;31.05;6.72;;;17.60;99.90;;;;;;5058451;28;20053;-72
2022/06/15 04:13:36;;;;;;;10.98;4.47;;;18.40;99.90;;;;;;5074387;28;20389;-72
2022/06/15 04:16:08;;;;;;;10.77;4.32;;;19.30;99.90;;;;;;5056704;28;20395;-72
2022/06/15 04:18:36;;;;;;;8.55;4.28;;;19.80;99.90;;;;;;5053094;28;20045;-72
2022/06/15 04:21:10;;;;;;;9.77;4.35;;;19.60;99.90;;;;;;5057300;28;20048;-71
2022/06/15 04:23:37;;;;;;;8.40;3.90;;;20.00;99.90;;;;;;5057580;28;20521;-71
2022/06/15 04:26:05;;;;;;;10.05;4.50;;;20.60;99.90;;;;;;5057120;28;20070;-72
2022/06/15 04:28:44;;;;;;;8.30;3.95;;;21.10;99.90;;;;;;5067278;28;20055;-71
2022/06/15 04:31:20;;;;;;;7.97;4.22;;;21.50;99.90;;;;;;5074046;28;20052;-72
2022/06/15 04:33:48;;;;;;;7.43;4.10;;;22.00;99.90;;;;;;5074037;28;20549;-72
2022/06/15 04:36:17;;;;;;;9.38;4.25;;;22.80;99.90;;;;;;5064893;28;20044;-71
2022/06/15 04:38:55;;;;;;;10.00;3.97;;;23.30;99.90;;;;;;5084090;28;20094;-73
2022/06/15 04:41:22;;;;;;;9.10;4.13;;;23.40;99.90;;;;;;5065047;28;20044;-72
2022/06/15 04:43:50;;;;;;;11.18;4.85;;;23.70;99.90;;;;;;5077634;28;20041;-72
2022/06/15 04:46:18;;;;;;;10.48;4.45;;;23.90;99.90;;;;;;5059906;28;20503;-73
2022/06/15 04:48:48;;;;;;;12.48;5.50;;;24.30;99.90;;;;;;5062268;28;20076;-71
2022/06/15 04:51:21;;;;;;;11.43;4.70;;;24.60;99.90;;;;;;5057456;28;20086;-72
2022/06/15 04:53:53;;;;;;;7.22;4.47;;;24.80;99.90;;;;;;5056656;28;20131;-73
2022/06/15 04:56:21;;;;;;;11.57;5.50;;;25.30;99.90;;;;;;5056839;28;20151;-71
2022/06/15 04:58:49;;;;;;;11.27;4.53;;;25.70;99.90;;;;;;5056969;28;20136;-73
2022/06/15 05:01:20;;;;;;;9.70;4.80;;;25.90;99.90;;;;;;5073531;28;20052;-72
2022/06/15 05:03:48;;;;;;;14.32;5.25;;;26.00;99.90;;;;;;5074192;28;20048;-73
2022/06/15 05:06:32;;;;;;;12.25;5.40;;;26.00;99.90;;;;;;5056091;28;20691;-72
2022/06/15 05:09:01;;;;;;;10.07;4.60;;;25.70;99.90;;;;;;5055848;28;20173;-73
2022/06/15 05:11:29;;;;;;;7.25;4.22;;;25.90;99.90;;;;;;5056878;28;20064;-72
2022/06/15 05:13:57;;;;;;;11.55;4.75;;;25.10;99.90;;;;;;5057244;28;20136;-72
2022/06/15 05:16:28;;;;;;;12.40;4.82;;;24.30;99.90;;;;;;5061415;28;20078;-72
2022/06/15 05:18:55;;;;;;;10.10;4.90;;;24.20;99.90;;;;;;5057178;28;20048;-73
2022/06/15 05:21:29;;;;;;;17.05;5.63;;;24.80;99.90;;;;;;5056701;28;20055;-73
2022/06/15 05:23:57;;;;;;;11.57;6.00;;;25.50;99.90;;;;;;5056627;28;20155;-71
2022/06/15 05:26:39;;;;;;;13.52;5.78;;;26.00;99.90;;;;;;5057098;28;20407;-73
2022/06/15 05:29:08;;;;;;;15.15;5.47;;;26.30;99.90;;;;;;5065391;28;20053;-73
2022/06/15 05:31:36;;;;;;;14.20;5.28;;;25.70;99.90;;;;;;5040008;28;20140;-72
2022/06/15 05:34:06;;;;;;;15.55;5.10;;;25.60;99.90;;;;;;5036148;28;20045;-73
2022/06/15 05:36:36;;;;;;;13.20;5.85;;;26.00;99.90;;;;;;5075375;28;20044;-73
2022/06/15 05:39:05;;;;;;;12.93;5.88;;;26.50;99.90;;;;;;5055529;28;20139;-73
2022/06/15 05:41:36;;;;;;;11.48;5.80;;;26.00;99.90;;;;;;5070395;28;20503;-73
2022/06/15 05:44:06;;;;;;;13.93;6.50;;;26.10;99.90;;;;;;5054353;28;20048;-73
2022/06/15 05:46:39;;;;;;;12.18;5.45;;;26.40;99.90;;;;;;5055625;28;20056;-73
2022/06/15 05:49:36;;;;;;;14.77;5.80;;;26.60;99.90;;;;;;5058762;28;20045;-73
2022/06/15 05:52:08;;;;;;;17.08;6.65;;;26.60;99.90;;;;;;5055909;28;20050;-72
2022/06/15 05:54:38;;;;;;;13.63;6.70;;;26.40;99.90;;;;;;5052749;28;20170;-74
2022/06/15 05:57:12;;;;;;;13.05;5.03;;;26.40;99.90;;;;;;5071820;28;20041;-74
2022/06/15 05:59:39;;;;;;;12.60;5.50;;;26.20;99.90;;;;;;5073458;28;20064;-73
2022/06/15 06:02:06;;;;;;;16.75;8.45;;;26.00;99.90;;;;;;5073270;28;20036;-73
2022/06/15 06:04:33;;;;;;;16.50;6.50;;;26.00;99.90;;;;;;5071844;28;20040;-73
2022/06/15 06:07:01;;;;;;;15.07;6.57;;;25.50;99.90;;;;;;5073310;28;20079;-72
2022/06/15 06:09:29;;;;;;;10.88;5.50;;;25.30;99.90;;;;;;5075230;28;20036;-73
2022/06/15 06:11:56;;;;;;;13.05;5.88;;;24.70;99.90;;;;;;5073467;28;20048;-73
2022/06/15 06:14:24;;;;;;;12.35;5.03;;;24.70;99.90;;;;;;5073342;28;20044;-74
2022/06/15 06:16:51;;;;;;;8.13;4.55;;;24.00;99.90;;;;;;5073477;28;20106;-73
2022/06/15 06:19:18;;;;;;;13.73;5.82;;;23.20;99.90;;;;;;5073622;28;20040;-72
2022/06/15 06:21:46;;;;;;;18.02;7.20;;;23.40;99.90;;;;;;5074764;28;20097;-71
2022/06/15 06:24:19;;;;;;;15.32;5.50;;;23.50;99.90;;;;;;5057251;28;20404;-72
2022/06/15 06:26:47;;;;;;;10.40;5.15;;;23.30;99.90;;;;;;5079041;28;20096;-72
2022/06/15 06:29:17;;;;;;;11.82;4.55;;;22.90;99.90;;;;;;5092727;28;20044;-73
2022/06/15 06:31:44;;;;;;;11.48;4.60;;;22.50;99.90;;;;;;5093837;28;20063;-73
2022/06/15 06:34:12;;;;;;;13.30;5.07;;;22.70;99.90;;;;;;5076838;28;20040;-71
2022/06/15 06:36:42;;;;;;;12.95;5.60;;;22.90;99.90;;;;;;5074229;28;20044;-71
2022/06/15 06:39:15;;;;;;;14.10;6.07;;;23.00;99.90;;;;;;5073775;28;20040;-72
2022/06/15 06:41:43;;;;;;;9.40;5.20;;;22.70;99.90;;;;;;5056276;28;20044;-71
2022/06/15 06:44:13;;;;;;;11.43;5.03;;;22.50;99.90;;;;;;5073499;28;20060;-73
2022/06/15 06:46:45;;;;;;;8.60;4.22;;;22.60;99.90;;;;;;5073622;28;20462;-72
2022/06/15 06:49:13;;;;;;;9.18;4.85;;;22.50;99.90;;;;;;5074189;28;20044;-72
2022/06/15 06:51:41;;;;;;;12.48;4.97;;;22.40;99.10;;;;;;5074325;28;20056;-72
2022/06/15 06:54:10;;;;;;;10.55;4.82;;;22.50;98.60;;;;;;5075087;28;20041;-72
2022/06/15 06:56:38;;;;;;;8.68;4.03;;;22.60;98.10;;;;;;5075451;28;20097;-72
2022/06/15 06:59:08;;;;;;;12.27;4.93;;;22.90;97.80;;;;;;5074453;28;20041;-72
2022/06/15 07:01:38;;;;;;;6.47;4.25;;;22.90;98.00;;;;;;5074786;28;20062;-72
2022/06/15 07:04:05;;;;;;;13.10;5.43;;;22.80;99.90;;;;;;5056215;28;20087;-71
2022/06/15 07:06:33;;;;;;;8.20;4.47;;;22.90;99.60;;;;;;5078572;28;20044;-71
2022/06/15 07:09:01;;;;;;;8.20;4.47;;;23.00;99.90;;;;;;5078771;28;20043;-73
2022/06/15 07:11:28;;;;;;;10.05;5.03;;;23.10;99.90;;;;;;5077997;28;20044;-72
2022/06/15 07:13:56;;;;;;;13.30;6.70;;;23.60;99.90;;;;;;5076906;28;20127;-72
2022/06/15 07:16:24;;;;;;;13.82;5.40;;;23.70;99.90;;;;;;5077996;28;20501;-74
2022/06/15 07:18:53;;;;;;;15.52;10.18;;;23.90;99.90;;;;;;5078485;28;20052;-73
2022/06/15 07:21:22;;;;;;;13.18;6.72;;;24.30;99.90;;;;;;5077863;28;20040;-72
2022/06/15 07:23:52;;;;;;;13.13;6.55;;;24.40;99.90;;;;;;5077183;28;20045;-72
2022/06/15 07:26:23;;;;;;;13.60;7.35;;;24.50;99.90;;;;;;5077136;28;20067;-73
2022/06/15 07:28:51;;;;;;;14.43;6.47;;;24.60;99.90;;;;;;5077346;28;20072;-72
2022/06/15 07:31:23;;;;;;;13.27;7.28;;;24.60;99.90;;;;;;5077301;28;20052;-72
2022/06/15 07:33:53;;;;;;;8.88;5.40;;;24.90;99.90;;;;;;5077363;28;20040;-73
2022/06/15 07:36:22;;;;;;;10.52;6.30;;;24.80;99.90;;;;;;5077154;28;20097;-73
2022/06/15 07:38:50;;;;;;;10.77;5.57;;;24.80;99.90;;;;;;5076814;28;20052;-72
2022/06/15 07:41:17;;;;;;;13.45;5.78;;;24.50;99.90;;;;;;5077274;28;20045;-72
2022/06/15 07:43:44;;;;;;;12.25;6.13;;;24.70;99.90;;;;;;5077446;28;20158;-73
2022/06/15 07:46:11;;;;;;;15.38;6.43;;;25.00;99.90;;;;;;5076456;28;20144;-73
2022/06/15 07:51:29;;;;;;;11.82;6.60;;;25.40;99.90;;;;;;5077991;28;20040;-73
2022/06/15 07:53:57;;;;;;;15.07;7.10;;;25.40;99.90;;;;;;5058778;28;20503;-73
2022/06/15 07:56:26;;;;;;;7.85;4.45;;;25.50;99.90;;;;;;5076603;28;20530;-73
2022/06/15 07:58:54;;;;;;;6.20;4.40;;;25.50;99.90;;;;;;5058856;28;20490;-73
2022/06/15 08:01:22;;;;;;;10.40;4.85;;;25.40;99.90;;;;;;5076568;28;20106;-72
2022/06/15 08:03:50;;;;;;;8.27;4.40;;;25.20;99.90;;;;;;5059889;28;20079;-75
2022/06/15 08:06:18;;;;;;;6.32;4.20;;;24.90;99.90;;;;;;5076961;28;20040;-76
2022/06/15 08:08:47;;;;;;;9.05;3.25;;;24.60;99.90;;;;;;5077233;28;20071;-76
2022/06/15 08:11:15;;;;;;;6.97;3.78;;;24.60;99.90;;;;;;5076269;28;20393;-75
2022/06/15 08:13:43;;;;;;;10.40;3.92;;;24.60;99.90;;;;;;5075993;28;20124;-75
2022/06/15 08:16:12;;;;;;;20.70;3.78;;;24.70;99.90;;;;;;5076125;28;20037;-75
2022/06/15 08:18:43;;;;;;;8.70;3.58;;;24.80;99.90;;;;;;5076027;28;20062;-77
2022/06/15 08:21:14;;;;;;;6.05;3.40;;;24.80;99.90;;;;;;5076531;28;20072;-74
2022/06/15 08:23:44;;;;;;;6.72;3.70;;;24.40;99.90;;;;;;5076853;28;20045;-76
2022/06/15 08:26:16;;;;;;;6.65;3.83;;;24.60;99.90;;;;;;5076722;28;20071;-75
2022/06/15 08:28:48;;;;;;;8.55;3.03;;;24.60;96.20;;;;;;5058834;28;20045;-75
2022/06/15 08:31:15;;;;;;;10.73;3.55;;;24.70;91.40;;;;;;5076495;28;20051;-77
2022/06/15 08:33:44;;;;;;;14.00;5.38;;;25.00;91.30;;;;;;5057349;28;20132;-76
2022/06/15 08:36:12;;;;;;;12.85;8.35;;;25.30;90.60;;;;;;5075467;28;20564;-76
2022/06/15 08:38:40;;;;;;;7.80;4.65;;;25.40;90.10;;;;;;5075233;28;20146;-76
2022/06/15 08:41:18;;;;;;;15.90;7.53;;;25.10;90.40;;;;;;5075587;28;20098;-77
2022/06/15 08:43:59;;;;;;;12.55;4.40;;;25.30;90.90;;;;;;5075434;28;20033;-77
2022/06/15 08:46:41;;;;;;;6.70;3.72;;;25.60;89.40;;;;;;5087706;22;20053;-74
2022/06/15 08:49:34;;;;;;;9.10;3.13;;;25.70;87.80;;;;;;5045249;28;20053;-75
2022/06/15 08:52:06;;;;;;;8.15;3.67;;;25.50;87.20;;;;;;5055236;28;20045;-75
2022/06/15 08:54:39;;;;;;;9.23;3.30;;;25.60;87.70;;;;;;5054936;28;20033;-74
2022/06/15 08:57:15;;;;;;;9.52;5.75;;;25.60;88.80;;;;;;5054933;28;20052;-75
2022/06/15 08:59:47;;;;;;;7.78;4.47;;;25.50;89.60;;;;;;5055107;28;20049;-74
2022/06/15 09:02:25;;;;;;;16.08;4.53;;;25.50;90.60;;;;;;5055015;28;20048;-74
2022/06/15 09:04:59;;;;;;;7.43;4.00;;;25.70;89.60;;;;;;5054974;28;20083;-74
2022/06/15 09:07:57;;;;;;;5.60;3.00;;;25.80;87.60;;;;;;5054805;28;20056;-74
2022/06/15 09:10:45;;;;;;;9.10;4.55;;;25.50;87.20;;;;;;5055267;28;20458;-74
2022/06/15 09:13:29;;;;;;;6.35;4.10;;;25.40;86.90;;;;;;5054508;28;20044;-73
2022/06/15 09:16:06;;;;;;;6.80;3.60;;;25.40;87.70;;;;;;5054758;28;20041;-74
2022/06/15 09:18:37;;;;;;;8.38;3.38;;;25.70;87.70;;;;;;5055849;28;20049;-74
2022/06/15 09:21:11;;;;;;;6.63;3.80;;;25.60;87.80;;;;;;5038083;28;20045;-74
2022/06/15 09:23:47;;;;;;;7.10;3.65;;;25.60;86.90;;;;;;5055533;28;20492;-74
2022/06/15 09:26:18;;;;;;;9.38;4.22;;;25.40;87.10;;;;;;5055467;28;20060;-74
2022/06/15 09:28:52;;;;;;;9.05;4.00;;;25.40;89.40;;;;;;5036894;28;20048;-74
2022/06/15 09:31:25;;;;;;;5.93;4.00;;;25.50;88.40;;;;;;5054362;28;20041;-73
2022/06/15 09:33:57;;;;;;;6.78;2.80;;;25.70;87.10;;;;;;5054081;28;20041;-75
2022/06/15 09:36:29;;;;;;;5.43;2.80;;;25.70;87.10;;;;;;5054120;28;20048;-74
2022/06/15 09:38:58;;;;;;;7.35;3.08;;;25.50;86.60;;;;;;5054053;28;20071;-74
2022/06/15 09:41:29;;;;;;;6.63;3.38;;;25.70;85.80;;;;;;5054061;28;20102;-74
2022/06/15 09:44:09;;;;;;;6.13;3.42;;;25.80;85.90;;;;;;5054127;28;20495;-74
2022/06/15 09:46:46;;;;;;;5.50;3.60;;;25.90;87.20;;;;;;5035712;28;20084;-74
2022/06/15 09:49:26;;;;;;;4.40;2.85;;;25.90;86.60;;;;;;5054365;28;20102;-74
2022/06/15 09:52:02;;;;;;;5.57;2.63;;;25.90;85.20;;;;;;5035847;28;20053;-74
2022/06/15 09:54:38;;;;;;;9.70;3.30;;;25.60;84.90;;;;;;5053548;28;20176;-75
2022/06/15 09:57:06;;;;;;;6.50;2.75;;;25.50;84.90;;;;;;5054926;28;20094;-73
2022/06/15 09:59:35;;;;;;;8.50;2.95;;;25.00;85.70;;;;;;5035967;28;20075;-73
2022/06/15 10:02:05;;;;;;;5.70;2.97;;;24.90;86.60;;;;;;5036146;28;20075;-74
2022/06/15 10:04:36;;;;;;;5.82;2.55;;;25.10;86.00;;;;;;5053769;28;20134;-74
2022/06/15 10:07:07;;;;;;;6.30;3.40;;;25.30;86.10;;;;;;5053869;28;20361;-74
2022/06/15 10:09:39;;;;;;;16.58;11.90;;;25.30;86.40;;;;;;5053800;28;20048;-73
2022/06/15 10:15:16;;;;;;;7.53;3.72;;;25.70;88.20;;;;;;5053484;28;20037;-74
2022/06/15 10:17:49;;;;;;;6.93;3.22;;;25.30;85.50;;;;;;5053314;28;20048;-73
2022/06/15 10:20:27;;;;;;;9.70;4.40;;;25.40;85.60;;;;;;5053792;28;20120;-74
2022/06/15 10:22:57;;;;;;;6.38;3.30;;;25.70;87.30;;;;;;5053295;28;20504;-74
2022/06/15 10:25:27;;;;;;;4.43;3.05;;;25.70;87.00;;;;;;5053260;28;20076;-73
2022/06/15 10:28:15;;;;;;;9.10;5.20;;;25.50;85.20;;;;;;5053712;28;20061;-74
2022/06/15 10:30:55;;;;;;;10.82;8.18;;;25.60;85.00;;;;;;5053345;28;20433;-75
2022/06/15 10:33:22;;;;;;;9.45;3.95;;;25.60;85.80;;;;;;5052079;28;20095;-75
2022/06/15 10:35:54;;;;;;;6.57;4.05;;;25.80;85.50;;;;;;5053431;28;20395;-76
2022/06/15 10:38:21;;;;;;;6.25;4.13;;;25.90;85.20;;;;;;5053375;28;20124;-75
2022/06/15 10:41:45;;;;;;;8.43;4.13;;;26.00;85.30;;;;;;5036760;28;20045;-75
2022/06/15 10:43:47;;;;;;;7.68;3.20;;;25.90;84.40;;;;;;5018916;28;20050;-76
2022/06/15 10:46:18;;;;;;;17.63;12.93;;;25.90;83.00;;;;;;5053475;28;20049;-75
2022/06/15 10:48:48;;;;;;;5.32;2.72;;;26.00;82.70;;;;;;5054092;28;20053;-75
2022/06/15 10:51:29;;;;;;;11.80;8.32;;;25.90;82.10;;;;;;5054068;28;20053;-75
2022/06/15 10:54:20;;;;;;;10.27;5.70;;;25.80;83.20;;;;;;5053074;28;20476;-76
2022/06/15 11:02:30;;;;;;;5.03;2.92;;;26.00;83.50;;;;;;5033334;28;20138;-75
2022/06/15 11:05:04;;;;;;;7.25;3.95;;;25.90;81.80;;;;;;5052352;28;20108;-75
2022/06/15 11:07:43;;;;;;;11.68;8.80;;;26.00;79.70;;;;;;5052479;28;20395;-74
2022/06/15 11:10:20;;;;;;;7.82;2.83;;;26.00;79.20;;;;;;5052995;28;20041;-75
2022/06/15 11:12:50;;;;;;;6.53;3.00;;;26.10;78.40;;;;;;5053355;28;20123;-74
2022/06/15 11:18:23;;;;;;;5.88;2.72;;;26.30;78.00;;;;;;5052737;28;20491;-75
2022/06/15 11:20:56;;;;;;;5.20;2.95;;;26.30;76.30;;;;;;5059468;28;20055;-75
2022/06/15 11:23:29;;;;;;;7.47;2.85;;;26.30;75.00;;;;;;5070021;28;20072;-75
2022/06/15 11:26:01;;;;;;;3.58;2.50;;;26.30;73.00;;;;;;5069680;28;20041;-75
2022/06/15 11:28:33;;;;;;;5.43;2.30;;;26.30;73.40;;;;;;5072876;28;20037;-75
2022/06/15 11:31:04;;;;;;;3.63;2.22;;;26.00;71.50;;;;;;5040762;28;20357;-76
2022/06/15 11:33:39;;;;;;;6.15;2.45;;;25.80;72.60;;;;;;5052613;28;20064;-75
2022/06/15 11:36:22;;;;;;;4.80;2.22;;;25.90;73.30;;;;;;5069395;28;20048;-75
2022/06/15 11:38:53;;;;;;;3.65;1.77;;;25.80;72.20;;;;;;5038163;28;20052;-74
2022/06/15 11:41:24;;;;;;;6.30;2.58;;;25.70;70.50;;;;;;5055090;28;20098;-75
2022/06/15 11:43:54;;;;;;;4.72;3.10;;;25.70;72.00;;;;;;5052449;28;20060;-75
2022/06/15 11:46:37;;;;;;;4.63;2.42;;;25.80;73.00;;;;;;5052375;28;20126;-76
2022/06/15 11:49:27;;;;;;;7.05;3.60;;;25.90;73.50;;;;;;5051434;28;20056;-75
2022/06/15 11:52:08;;;;;;;5.57;2.35;;;25.80;74.40;;;;;;5024419;28;20046;-76
2022/06/15 11:54:50;;;;;;;5.80;2.25;;;25.90;73.90;;;;;;5043726;28;20049;-76
2022/06/15 11:57:26;;;;;;;5.82;2.58;;;25.50;74.70;;;;;;5054211;28;20124;-75
2022/06/15 12:00:04;;;;;;;8.10;3.50;;;25.40;74.90;;;;;;5055786;28;20076;-76
2022/06/15 12:02:54;;;;;;;6.80;2.90;;;25.50;75.70;;;;;;5055109;28;20533;-75
2022/06/15 12:05:34;;;;;;;7.03;2.90;;;25.70;76.80;;;;;;5043779;28;20029;-75
2022/06/15 12:08:12;;;;;;;5.03;2.75;;;25.70;75.90;;;;;;5055247;28;20045;-76
2022/06/15 12:10:45;;;;;;;9.10;2.90;;;25.70;78.20;;;;;;5055814;28;20095;-75
2022/06/15 12:13:28;;;;;;;4.93;2.38;;;25.70;77.70;;;;;;5053972;28;20405;-76
2022/06/15 12:16:00;;;;;;;3.45;2.30;;;25.50;77.00;;;;;;5053929;28;20040;-75
2022/06/15 12:18:50;;;;;;;7.40;2.75;;;25.40;76.00;;;;;;5054259;28;20431;-75
2022/06/15 12:21:25;;;;;;;6.22;3.50;;;25.50;79.00;;;;;;5054583;28;20048;-75
2022/06/15 12:23:59;;;;;;;13.48;8.98;;;25.60;80.10;;;;;;5065008;28;20416;-75
2022/06/15 12:26:45;;;;;;;7.30;4.45;;;25.70;80.50;;;;;;5075303;28;20037;-77
2022/06/15 12:29:38;;;;;;;7.45;3.80;;;25.80;80.90;;;;;;5051420;28;20124;-76
2022/06/15 12:32:36;;;;;;;4.90;3.42;;;25.80;80.60;;;;;;5054607;28;20049;-75
2022/06/15 12:35:28;;;;;;;10.85;4.47;;;25.70;81.70;;;;;;5037056;28;20045;-76
2022/06/15 12:38:03;;;;;;;6.88;3.78;;;25.90;81.80;;;;;;5043575;28;20041;-75
2022/06/15 12:40:34;;;;;;;6.25;3.10;;;25.80;81.60;;;;;;5055252;28;20078;-75
2022/06/15 12:43:15;;;;;;;5.22;3.20;;;25.90;80.50;;;;;;5037492;28;20384;-72
2022/06/15 12:45:48;;;;;;;11.80;7.43;;;25.90;80.40;;;;;;5052957;28;20045;-73
2022/06/15 12:48:25;;;;;;;4.57;2.75;;;25.80;80.20;;;;;;5055071;28;20413;-79
2022/06/15 12:50:58;;;;;;;4.85;2.90;;;25.90;78.30;;;;;;5056632;28;20094;-76
2022/06/15 12:53:51;;;;;;;5.57;3.25;;;26.00;77.90;;;;;;5054986;28;20144;-79
2022/06/15 12:56:31;;;;;;;5.05;3.00;;;26.30;80.40;;;;;;5055252;28;20123;-78
2022/06/15 12:59:05;;;;;;;5.18;3.00;;;26.40;82.10;;;;;;5056382;28;20500;-78
2022/06/15 13:01:37;;;;;;;11.68;3.50;;;26.40;81.20;;;;;;5054173;28;20107;-78
2022/06/15 13:04:12;;;;;;;5.85;2.70;;;26.40;81.20;;;;;;5036391;28;20144;-78
2022/06/15 13:06:41;;;;;;;7.57;2.90;;;26.40;81.00;;;;;;5054313;28;20061;-79
2022/06/15 13:09:20;;;;;;;6.53;2.60;;;26.40;80.90;;;;;;5055198;28;20133;-77
2022/06/15 13:12:07;;;;;;;8.50;3.78;;;26.40;78.80;;;;;;5055957;28;20052;-78
2022/06/15 13:14:38;;;;;;;8.55;4.07;;;26.20;79.70;;;;;;5058024;28;20044;-78
2022/06/15 13:17:13;;;;;;;6.80;3.28;;;26.20;80.30;;;;;;5057784;28;20041;-78
2022/06/15 13:19:43;;;;;;;6.35;2.90;;;26.10;80.40;;;;;;5058254;28;20454;-78
2022/06/15 13:22:15;;;;;;;5.43;3.13;;;25.90;80.50;;;;;;5039492;28;20123;-77
2022/06/15 13:24:56;;;;;;;7.22;4.10;;;25.90;81.90;;;;;;5038881;28;20048;-79
2022/06/15 13:27:31;;;;;;;7.20;3.22;;;25.90;81.30;;;;;;5056397;28;20045;-79